sensor_id;sensor_type;location;lat;lon;timestamp;temperature;humidity
216;HTU21D;70668;48.81286795;9.14184224;2023-10-19T00:00:55;11.93;98.01
216;HTU21D;70668;48.81286795;9.14184224;2023-10-19T00:03:22;11.94;97.45
216;HTU21D;70668;48.81286795;9.14184224;2023-10-19T00:05:52;11.98;97.24
216;HTU21D;70668;48.81286795;9.14184224;2023-10-19T00:08:26;11.97;96.87
216;HTU21D;70668;48.81286795;9.14184224;2023-10-19T00:11:02;12.06;96.63
216;HTU21D;70668;48.81286795;9.14184224;2023-10-19T00:13:34;12.06;97.07
216;HTU21D;70668;48.81286795;9.14184224;2023-10-19T00:16:01;12.06;97.22
216;HTU21D;70668;48.81286795;9.14184224;2023-10-19T00:18:36;12.05;97.37
216;HTU21D;70668;48.81286795;9.14184224;2023-10-19T00:21:07;12.08;97.55
216;HTU21D;70668;48.81286795;9.14184224;2023-10-19T00:23:49;12.04;98.15
216;HTU21D;70668;48.81286795;9.14184224;2023-10-19T00:26:17;12.07;97.78
216;HTU21D;70668;48.81286795;9.14184224;2023-10-19T00:28:58;12.29;97.65
216;HTU21D;70668;48.81286795;9.14184224;2023-10-19T00:31:27;12.15;98.06
216;HTU21D;70668;48.81286795;9.14184224;2023-10-19T00:33:59;12.18;98.79
216;HTU21D;70668;48.81286795;9.14184224;2023-10-19T00:36:28;12.18;98.74
216;HTU21D;70668;48.81286795;9.14184224;2023-10-19T00:39:03;12.41;98.58
216;HTU21D;70668;48.81286795;9.14184224;2023-10-19T00:41:40;12.49;99.69
216;HTU21D;70668;48.81286795;9.14184224;2023-10-19T00:44:11;12.47;100.18
216;HTU21D;70668;48.81286795;9.14184224;2023-10-19T00:46:42;12.62;100.11
216;HTU21D;70668;48.81286795;9.14184224;2023-10-19T00:49:15;12.93;100.13
216;HTU21D;70668;48.81286795;9.14184224;2023-10-19T00:51:50;12.86;100.43
216;HTU21D;70668;48.81286795;9.14184224;2023-10-19T00:54:32;12.85;100.80
216;HTU21D;70668;48.81286795;9.14184224;2023-10-19T00:57:03;12.85;101.54
216;HTU21D;70668;48.81286795;9.14184224;2023-10-19T00:59:34;12.89;102.18
216;HTU21D;70668;48.81286795;9.14184224;2023-10-19T01:02:08;13.11;101.29
216;HTU21D;70668;48.81286795;9.14184224;2023-10-19T01:04:55;13.08;101.89
216;HTU21D;70668;48.81286795;9.14184224;2023-10-19T01:07:26;13.16;101.60
216;HTU21D;70668;48.81286795;9.14184224;2023-10-19T01:09:59;13.24;101.19
216;HTU21D;70668;48.81286795;9.14184224;2023-10-19T01:12:30;13.21;101.15
216;HTU21D;70668;48.81286795;9.14184224;2023-10-19T01:15:07;13.18;101.16
216;HTU21D;70668;48.81286795;9.14184224;2023-10-19T01:17:40;13.20;101.15
216;HTU21D;70668;48.81286795;9.14184224;2023-10-19T01:20:11;13.36;100.39
216;HTU21D;70668;48.81286795;9.14184224;2023-10-19T01:23:03;13.30;100.00
216;HTU21D;70668;48.81286795;9.14184224;2023-10-19T01:25:46;13.33;99.87
216;HTU21D;70668;48.81286795;9.14184224;2023-10-19T01:28:26;13.49;99.35
216;HTU21D;70668;48.81286795;9.14184224;2023-10-19T01:31:08;13.20;100.45
216;HTU21D;70668;48.81286795;9.14184224;2023-10-19T01:33:41;13.17;100.69
216;HTU21D;70668;48.81286795;9.14184224;2023-10-19T01:36:10;13.32;100.49
216;HTU21D;70668;48.81286795;9.14184224;2023-10-19T01:38:53;13.33;100.22
216;HTU21D;70668;48.81286795;9.14184224;2023-10-19T01:41:20;13.30;99.68
216;HTU21D;70668;48.81286795;9.14184224;2023-10-19T01:43:51;13.31;99.60
216;HTU21D;70668;48.81286795;9.14184224;2023-10-19T01:46:20;13.06;99.34
216;HTU21D;70668;48.81286795;9.14184224;2023-10-19T01:48:57;12.92;99.31
216;HTU21D;70668;48.81286795;9.14184224;2023-10-19T01:51:23;12.76;100.38
216;HTU21D;70668;48.81286795;9.14184224;2023-10-19T01:53:56;12.60;101.65
216;HTU21D;70668;48.81286795;9.14184224;2023-10-19T01:56:26;12.70;100.99
216;HTU21D;70668;48.81286795;9.14184224;2023-10-19T01:58:53;12.50;101.85
216;HTU21D;70668;48.81286795;9.14184224;2023-10-19T02:01:23;12.70;101.86
216;HTU21D;70668;48.81286795;9.14184224;2023-10-19T02:03:55;12.47;102.59
216;HTU21D;70668;48.81286795;9.14184224;2023-10-19T02:06:26;12.50;102.92
216;HTU21D;70668;48.81286795;9.14184224;2023-10-19T02:09:06;12.47;103.12
216;HTU21D;70668;48.81286795;9.14184224;2023-10-19T02:11:40;12.32;103.38
216;HTU21D;70668;48.81286795;9.14184224;2023-10-19T02:14:12;12.36;103.53
216;HTU21D;70668;48.81286795;9.14184224;2023-10-19T02:16:41;12.43;103.46
216;HTU21D;70668;48.81286795;9.14184224;2023-10-19T02:19:13;12.58;102.80
216;HTU21D;70668;48.81286795;9.14184224;2023-10-19T02:21:40;12.46;102.99
216;HTU21D;70668;48.81286795;9.14184224;2023-10-19T02:24:15;12.55;102.91
216;HTU21D;70668;48.81286795;9.14184224;2023-10-19T02:26:45;12.41;102.54
216;HTU21D;70668;48.81286795;9.14184224;2023-10-19T02:29:12;12.36;103.26
216;HTU21D;70668;48.81286795;9.14184224;2023-10-19T02:31:42;12.29;103.63
216;HTU21D;70668;48.81286795;9.14184224;2023-10-19T02:34:10;12.36;103.63
216;HTU21D;70668;48.81286795;9.14184224;2023-10-19T02:36:42;12.46;103.28
216;HTU21D;70668;48.81286795;9.14184224;2023-10-19T02:39:09;12.50;102.30
216;HTU21D;70668;48.81286795;9.14184224;2023-10-19T02:41:43;12.38;102.77
216;HTU21D;70668;48.81286795;9.14184224;2023-10-19T02:44:10;12.35;102.56
216;HTU21D;70668;48.81286795;9.14184224;2023-10-19T02:46:46;12.17;103.38
216;HTU21D;70668;48.81286795;9.14184224;2023-10-19T02:49:16;12.21;103.71
216;HTU21D;70668;48.81286795;9.14184224;2023-10-19T02:51:44;12.03;103.94
216;HTU21D;70668;48.81286795;9.14184224;2023-10-19T02:54:14;12.10;103.79
216;HTU21D;70668;48.81286795;9.14184224;2023-10-19T02:56:47;12.20;103.28
216;HTU21D;70668;48.81286795;9.14184224;2023-10-19T02:59:18;12.23;102.88
216;HTU21D;70668;48.81286795;9.14184224;2023-10-19T03:01:48;12.55;100.77
216;HTU21D;70668;48.81286795;9.14184224;2023-10-19T03:04:17;12.19;101.70
216;HTU21D;70668;48.81286795;9.14184224;2023-10-19T03:06:43;11.94;102.59
216;HTU21D;70668;48.81286795;9.14184224;2023-10-19T03:09:13;11.86;103.17
216;HTU21D;70668;48.81286795;9.14184224;2023-10-19T03:11:39;11.88;103.76
216;HTU21D;70668;48.81286795;9.14184224;2023-10-19T03:14:11;12.16;102.67
216;HTU21D;70668;48.81286795;9.14184224;2023-10-19T03:16:38;11.99;102.33
216;HTU21D;70668;48.81286795;9.14184224;2023-10-19T03:19:07;12.06;102.15
216;HTU21D;70668;48.81286795;9.14184224;2023-10-19T03:21:34;12.02;101.98
216;HTU21D;70668;48.81286795;9.14184224;2023-10-19T03:24:08;11.92;102.55
216;HTU21D;70668;48.81286795;9.14184224;2023-10-19T03:26:38;12.25;101.77
216;HTU21D;70668;48.81286795;9.14184224;2023-10-19T03:29:16;12.36;98.93
216;HTU21D;70668;48.81286795;9.14184224;2023-10-19T03:31:48;12.41;98.84
216;HTU21D;70668;48.81286795;9.14184224;2023-10-19T03:34:18;12.18;99.30
216;HTU21D;70668;48.81286795;9.14184224;2023-10-19T03:36:49;12.44;98.91
216;HTU21D;70668;48.81286795;9.14184224;2023-10-19T03:39:20;12.17;99.86
216;HTU21D;70668;48.81286795;9.14184224;2023-10-19T03:41:49;11.99;100.67
216;HTU21D;70668;48.81286795;9.14184224;2023-10-19T03:44:20;11.93;100.88
216;HTU21D;70668;48.81286795;9.14184224;2023-10-19T03:46:51;11.99;100.97
216;HTU21D;70668;48.81286795;9.14184224;2023-10-19T03:49:23;12.21;99.86
216;HTU21D;70668;48.81286795;9.14184224;2023-10-19T03:51:56;11.71;100.82
216;HTU21D;70668;48.81286795;9.14184224;2023-10-19T03:54:45;11.84;101.99
216;HTU21D;70668;48.81286795;9.14184224;2023-10-19T03:57:16;11.74;102.42
216;HTU21D;70668;48.81286795;9.14184224;2023-10-19T03:59:51;11.78;101.94
216;HTU21D;70668;48.81286795;9.14184224;2023-10-19T04:02:22;11.62;101.77
216;HTU21D;70668;48.81286795;9.14184224;2023-10-19T04:04:52;11.85;101.42
216;HTU21D;70668;48.81286795;9.14184224;2023-10-19T04:07:23;11.70;102.29
216;HTU21D;70668;48.81286795;9.14184224;2023-10-19T04:09:54;11.67;101.54
216;HTU21D;70668;48.81286795;9.14184224;2023-10-19T04:12:36;11.79;100.70
216;HTU21D;70668;48.81286795;9.14184224;2023-10-19T04:15:10;11.48;101.39
216;HTU21D;70668;48.81286795;9.14184224;2023-10-19T04:17:42;11.74;101.26
216;HTU21D;70668;48.81286795;9.14184224;2023-10-19T04:20:11;11.72;101.06
216;HTU21D;70668;48.81286795;9.14184224;2023-10-19T04:22:55;11.76;100.48
216;HTU21D;70668;48.81286795;9.14184224;2023-10-19T04:25:31;11.72;100.91
216;HTU21D;70668;48.81286795;9.14184224;2023-10-19T04:28:00;11.52;102.02
216;HTU21D;70668;48.81286795;9.14184224;2023-10-19T04:30:33;11.54;101.54
216;HTU21D;70668;48.81286795;9.14184224;2023-10-19T04:33:03;11.40;102.47
216;HTU21D;70668;48.81286795;9.14184224;2023-10-19T04:35:34;11.60;101.76
216;HTU21D;70668;48.81286795;9.14184224;2023-10-19T04:38:04;11.39;102.30
216;HTU21D;70668;48.81286795;9.14184224;2023-10-19T04:40:34;11.81;100.58
216;HTU21D;70668;48.81286795;9.14184224;2023-10-19T04:43:04;11.56;102.02
216;HTU21D;70668;48.81286795;9.14184224;2023-10-19T04:45:39;11.59;101.35
216;HTU21D;70668;48.81286795;9.14184224;2023-10-19T04:48:10;11.38;102.24
216;HTU21D;70668;48.81286795;9.14184224;2023-10-19T04:50:39;11.70;101.42
216;HTU21D;70668;48.81286795;9.14184224;2023-10-19T04:53:07;11.47;101.82
216;HTU21D;70668;48.81286795;9.14184224;2023-10-19T04:55:36;11.70;101.57
216;HTU21D;70668;48.81286795;9.14184224;2023-10-19T04:58:04;11.54;101.42
216;HTU21D;70668;48.81286795;9.14184224;2023-10-19T05:00:36;11.66;101.10
216;HTU21D;70668;48.81286795;9.14184224;2023-10-19T05:03:04;11.31;101.89
216;HTU21D;70668;48.81286795;9.14184224;2023-10-19T05:05:33;11.34;101.57
216;HTU21D;70668;48.81286795;9.14184224;2023-10-19T05:08:04;11.40;102.26
216;HTU21D;70668;48.81286795;9.14184224;2023-10-19T05:10:33;11.37;102.43
216;HTU21D;70668;48.81286795;9.14184224;2023-10-19T05:13:01;11.48;101.14
216;HTU21D;70668;48.81286795;9.14184224;2023-10-19T05:15:30;11.34;101.84
216;HTU21D;70668;48.81286795;9.14184224;2023-10-19T05:18:02;11.53;100.72
216;HTU21D;70668;48.81286795;9.14184224;2023-10-19T05:20:31;11.16;101.72
216;HTU21D;70668;48.81286795;9.14184224;2023-10-19T05:23:03;11.19;101.89
216;HTU21D;70668;48.81286795;9.14184224;2023-10-19T05:25:32;11.42;101.88
216;HTU21D;70668;48.81286795;9.14184224;2023-10-19T05:28:02;11.45;100.90
216;HTU21D;70668;48.81286795;9.14184224;2023-10-19T05:30:31;11.68;100.53
216;HTU21D;70668;48.81286795;9.14184224;2023-10-19T05:33:03;11.94;99.24
216;HTU21D;70668;48.81286795;9.14184224;2023-10-19T05:35:32;11.71;100.67
216;HTU21D;70668;48.81286795;9.14184224;2023-10-19T05:38:06;12.12;99.78
216;HTU21D;70668;48.81286795;9.14184224;2023-10-19T05:40:35;12.20;99.30
216;HTU21D;70668;48.81286795;9.14184224;2023-10-19T05:43:04;12.19;99.84
216;HTU21D;70668;48.81286795;9.14184224;2023-10-19T05:45:33;11.86;100.32
216;HTU21D;70668;48.81286795;9.14184224;2023-10-19T05:48:06;12.04;101.05
216;HTU21D;70668;48.81286795;9.14184224;2023-10-19T05:50:35;11.99;99.99
216;HTU21D;70668;48.81286795;9.14184224;2023-10-19T05:53:04;11.39;102.02
216;HTU21D;70668;48.81286795;9.14184224;2023-10-19T05:55:33;11.27;103.03
216;HTU21D;70668;48.81286795;9.14184224;2023-10-19T05:58:02;11.63;102.84
216;HTU21D;70668;48.81286795;9.14184224;2023-10-19T06:00:31;11.24;102.80
216;HTU21D;70668;48.81286795;9.14184224;2023-10-19T06:03:00;11.23;103.53
216;HTU21D;70668;48.81286795;9.14184224;2023-10-19T06:05:32;11.34;103.55
216;HTU21D;70668;48.81286795;9.14184224;2023-10-19T06:08:01;11.59;102.68
216;HTU21D;70668;48.81286795;9.14184224;2023-10-19T06:10:30;11.59;101.97
216;HTU21D;70668;48.81286795;9.14184224;2023-10-19T06:12:58;11.58;101.99
216;HTU21D;70668;48.81286795;9.14184224;2023-10-19T06:15:27;11.43;102.75
216;HTU21D;70668;48.81286795;9.14184224;2023-10-19T06:17:56;11.34;102.91
216;HTU21D;70668;48.81286795;9.14184224;2023-10-19T06:20:25;11.49;103.25
216;HTU21D;70668;48.81286795;9.14184224;2023-10-19T06:22:57;11.48;103.29
216;HTU21D;70668;48.81286795;9.14184224;2023-10-19T06:25:30;11.55;102.95
216;HTU21D;70668;48.81286795;9.14184224;2023-10-19T06:28:00;11.72;102.80
216;HTU21D;70668;48.81286795;9.14184224;2023-10-19T06:30:29;11.72;102.66
216;HTU21D;70668;48.81286795;9.14184224;2023-10-19T06:33:00;11.81;101.93
216;HTU21D;70668;48.81286795;9.14184224;2023-10-19T06:35:30;11.70;102.56
216;HTU21D;70668;48.81286795;9.14184224;2023-10-19T06:38:01;11.84;102.28
216;HTU21D;70668;48.81286795;9.14184224;2023-10-19T06:40:31;11.78;102.71
216;HTU21D;70668;48.81286795;9.14184224;2023-10-19T06:43:02;11.93;102.08
216;HTU21D;70668;48.81286795;9.14184224;2023-10-19T06:45:32;11.73;102.96
216;HTU21D;70668;48.81286795;9.14184224;2023-10-19T06:48:00;11.72;103.33
216;HTU21D;70668;48.81286795;9.14184224;2023-10-19T06:50:29;11.89;102.94
216;HTU21D;70668;48.81286795;9.14184224;2023-10-19T06:53:01;12.06;102.06
216;HTU21D;70668;48.81286795;9.14184224;2023-10-19T06:55:31;12.14;101.48
216;HTU21D;70668;48.81286795;9.14184224;2023-10-19T06:57:59;12.26;101.90
216;HTU21D;70668;48.81286795;9.14184224;2023-10-19T07:00:28;12.26;101.01
216;HTU21D;70668;48.81286795;9.14184224;2023-10-19T07:02:57;12.25;101.55
216;HTU21D;70668;48.81286795;9.14184224;2023-10-19T07:05:28;12.42;100.28
216;HTU21D;70668;48.81286795;9.14184224;2023-10-19T07:08:00;12.29;101.79
216;HTU21D;70668;48.81286795;9.14184224;2023-10-19T07:10:32;12.34;102.31
216;HTU21D;70668;48.81286795;9.14184224;2023-10-19T07:13:01;12.15;102.35
216;HTU21D;70668;48.81286795;9.14184224;2023-10-19T07:15:30;12.32;101.12
216;HTU21D;70668;48.81286795;9.14184224;2023-10-19T07:18:01;12.18;102.54
216;HTU21D;70668;48.81286795;9.14184224;2023-10-19T07:20:31;12.16;102.69
216;HTU21D;70668;48.81286795;9.14184224;2023-10-19T07:23:04;12.18;103.18
216;HTU21D;70668;48.81286795;9.14184224;2023-10-19T07:25:36;12.35;102.69
216;HTU21D;70668;48.81286795;9.14184224;2023-10-19T07:28:09;12.45;101.84
216;HTU21D;70668;48.81286795;9.14184224;2023-10-19T07:30:39;12.38;102.22
216;HTU21D;70668;48.81286795;9.14184224;2023-10-19T07:33:07;12.46;102.23
216;HTU21D;70668;48.81286795;9.14184224;2023-10-19T07:35:37;12.64;101.90
216;HTU21D;70668;48.81286795;9.14184224;2023-10-19T07:38:11;12.60;101.54
216;HTU21D;70668;48.81286795;9.14184224;2023-10-19T07:40:39;12.82;101.25
216;HTU21D;70668;48.81286795;9.14184224;2023-10-19T07:43:09;12.95;99.51
216;HTU21D;70668;48.81286795;9.14184224;2023-10-19T07:45:37;13.01;100.42
216;HTU21D;70668;48.81286795;9.14184224;2023-10-19T07:48:07;12.95;100.00
216;HTU21D;70668;48.81286795;9.14184224;2023-10-19T07:50:37;12.93;100.64
216;HTU21D;70668;48.81286795;9.14184224;2023-10-19T07:53:06;13.50;98.47
216;HTU21D;70668;48.81286795;9.14184224;2023-10-19T07:55:37;13.14;99.40
216;HTU21D;70668;48.81286795;9.14184224;2023-10-19T07:58:06;0.00;100.99
216;HTU21D;70668;48.81286795;9.14184224;2023-10-19T08:00:36;13.12;101.73
216;HTU21D;70668;48.81286795;9.14184224;2023-10-19T08:03:08;13.02;102.60
216;HTU21D;70668;48.81286795;9.14184224;2023-10-19T08:05:39;13.05;102.94
216;HTU21D;70668;48.81286795;9.14184224;2023-10-19T08:08:08;13.17;102.21
216;HTU21D;70668;48.81286795;9.14184224;2023-10-19T08:10:40;13.35;100.35
216;HTU21D;70668;48.81286795;9.14184224;2023-10-19T08:13:09;13.49;100.16
216;HTU21D;70668;48.81286795;9.14184224;2023-10-19T08:15:38;13.24;100.61
216;HTU21D;70668;48.81286795;9.14184224;2023-10-19T08:18:07;13.34;101.22
216;HTU21D;70668;48.81286795;9.14184224;2023-10-19T08:20:38;13.58;99.40
216;HTU21D;70668;48.81286795;9.14184224;2023-10-19T08:23:06;13.81;98.61
216;HTU21D;70668;48.81286795;9.14184224;2023-10-19T08:25:35;13.76;99.56
216;HTU21D;70668;48.81286795;9.14184224;2023-10-19T08:28:06;13.65;100.64
216;HTU21D;70668;48.81286795;9.14184224;2023-10-19T08:30:34;13.78;98.87
216;HTU21D;70668;48.81286795;9.14184224;2023-10-19T08:33:04;14.01;99.67
216;HTU21D;70668;48.81286795;9.14184224;2023-10-19T08:35:34;14.09;98.89
216;HTU21D;70668;48.81286795;9.14184224;2023-10-19T08:38:03;14.10;99.55
216;HTU21D;70668;48.81286795;9.14184224;2023-10-19T08:40:37;14.05;100.07
216;HTU21D;70668;48.81286795;9.14184224;2023-10-19T08:43:08;14.32;99.80
216;HTU21D;70668;48.81286795;9.14184224;2023-10-19T08:45:39;14.18;99.34
216;HTU21D;70668;48.81286795;9.14184224;2023-10-19T08:48:08;14.33;99.92
216;HTU21D;70668;48.81286795;9.14184224;2023-10-19T08:50:37;14.39;99.41
216;HTU21D;70668;48.81286795;9.14184224;2023-10-19T08:53:07;14.47;99.38
216;HTU21D;70668;48.81286795;9.14184224;2023-10-19T08:55:38;14.79;97.88
216;HTU21D;70668;48.81286795;9.14184224;2023-10-19T08:58:09;14.84;97.52
216;HTU21D;70668;48.81286795;9.14184224;2023-10-19T09:00:45;14.92;96.43
216;HTU21D;70668;48.81286795;9.14184224;2023-10-19T09:03:19;14.79;97.61
216;HTU21D;70668;48.81286795;9.14184224;2023-10-19T09:05:48;14.77;96.84
216;HTU21D;70668;48.81286795;9.14184224;2023-10-19T09:08:17;14.77;97.79
216;HTU21D;70668;48.81286795;9.14184224;2023-10-19T09:10:48;15.08;96.69
216;HTU21D;70668;48.81286795;9.14184224;2023-10-19T09:13:20;15.03;96.17
216;HTU21D;70668;48.81286795;9.14184224;2023-10-19T09:15:49;15.23;96.00
216;HTU21D;70668;48.81286795;9.14184224;2023-10-19T09:18:20;15.27;95.20
216;HTU21D;70668;48.81286795;9.14184224;2023-10-19T09:20:50;15.32;95.62
216;HTU21D;70668;48.81286795;9.14184224;2023-10-19T09:23:27;15.19;97.32
216;HTU21D;70668;48.81286795;9.14184224;2023-10-19T09:25:57;15.45;96.39
216;HTU21D;70668;48.81286795;9.14184224;2023-10-19T09:28:28;15.37;97.24
216;HTU21D;70668;48.81286795;9.14184224;2023-10-19T09:31:00;15.41;97.39
216;HTU21D;70668;48.81286795;9.14184224;2023-10-19T09:33:30;15.60;97.07
216;HTU21D;70668;48.81286795;9.14184224;2023-10-19T09:36:00;15.76;93.43
216;HTU21D;70668;48.81286795;9.14184224;2023-10-19T09:38:30;15.75;95.29
216;HTU21D;70668;48.81286795;9.14184224;2023-10-19T09:40:58;16.10;94.51
216;HTU21D;70668;48.81286795;9.14184224;2023-10-19T09:43:34;15.92;95.54
216;HTU21D;70668;48.81286795;9.14184224;2023-10-19T09:46:06;16.13;94.91
216;HTU21D;70668;48.81286795;9.14184224;2023-10-19T09:48:40;16.15;95.17
216;HTU21D;70668;48.81286795;9.14184224;2023-10-19T09:51:10;16.14;90.14
216;HTU21D;70668;48.81286795;9.14184224;2023-10-19T09:53:39;16.29;91.48
216;HTU21D;70668;48.81286795;9.14184224;2023-10-19T09:56:12;16.21;93.69
216;HTU21D;70668;48.81286795;9.14184224;2023-10-19T09:58:45;16.18;93.57
216;HTU21D;70668;48.81286795;9.14184224;2023-10-19T10:01:15;16.08;94.38
216;HTU21D;70668;48.81286795;9.14184224;2023-10-19T10:03:49;15.83;95.95
216;HTU21D;70668;48.81286795;9.14184224;2023-10-19T10:06:27;15.85;97.13
216;HTU21D;70668;48.81286795;9.14184224;2023-10-19T10:08:56;15.89;95.42
216;HTU21D;70668;48.81286795;9.14184224;2023-10-19T10:11:27;15.96;95.53
216;HTU21D;70668;48.81286795;9.14184224;2023-10-19T10:13:58;16.08;93.93
216;HTU21D;70668;48.81286795;9.14184224;2023-10-19T10:16:28;15.86;95.19
216;HTU21D;70668;48.81286795;9.14184224;2023-10-19T10:18:57;15.82;95.53
216;HTU21D;70668;48.81286795;9.14184224;2023-10-19T10:21:29;16.20;93.34
216;HTU21D;70668;48.81286795;9.14184224;2023-10-19T10:23:59;15.89;95.19
216;HTU21D;70668;48.81286795;9.14184224;2023-10-19T10:26:30;15.98;94.81
216;HTU21D;70668;48.81286795;9.14184224;2023-10-19T10:29:15;16.12;94.21
216;HTU21D;70668;48.81286795;9.14184224;2023-10-19T10:31:46;16.31;94.64
216;HTU21D;70668;48.81286795;9.14184224;2023-10-19T10:34:43;16.76;91.63
216;HTU21D;70668;48.81286795;9.14184224;2023-10-19T10:37:13;16.60;93.02
216;HTU21D;70668;48.81286795;9.14184224;2023-10-19T10:39:42;16.69;91.82
216;HTU21D;70668;48.81286795;9.14184224;2023-10-19T10:42:10;16.69;92.72
216;HTU21D;70668;48.81286795;9.14184224;2023-10-19T10:44:44;16.35;94.13
216;HTU21D;70668;48.81286795;9.14184224;2023-10-19T10:47:16;16.20;95.34
216;HTU21D;70668;48.81286795;9.14184224;2023-10-19T10:49:48;16.37;94.64
216;HTU21D;70668;48.81286795;9.14184224;2023-10-19T10:52:24;16.30;95.55
216;HTU21D;70668;48.81286795;9.14184224;2023-10-19T10:54:54;16.20;95.26
216;HTU21D;70668;48.81286795;9.14184224;2023-10-19T10:57:23;16.22;95.27
216;HTU21D;70668;48.81286795;9.14184224;2023-10-19T11:00:06;16.45;92.76
216;HTU21D;70668;48.81286795;9.14184224;2023-10-19T11:02:41;16.25;94.46
216;HTU21D;70668;48.81286795;9.14184224;2023-10-19T11:05:12;16.22;94.96
216;HTU21D;70668;48.81286795;9.14184224;2023-10-19T11:07:41;16.08;95.82
216;HTU21D;70668;48.81286795;9.14184224;2023-10-19T11:10:09;16.16;95.32
216;HTU21D;70668;48.81286795;9.14184224;2023-10-19T11:12:38;16.18;96.17
216;HTU21D;70668;48.81286795;9.14184224;2023-10-19T11:15:10;16.10;96.55
216;HTU21D;70668;48.81286795;9.14184224;2023-10-19T11:17:44;16.19;95.74
216;HTU21D;70668;48.81286795;9.14184224;2023-10-19T11:20:21;16.46;87.61
216;HTU21D;70668;48.81286795;9.14184224;2023-10-19T11:22:51;16.33;89.36
216;HTU21D;70668;48.81286795;9.14184224;2023-10-19T11:25:22;16.30;91.72
216;HTU21D;70668;48.81286795;9.14184224;2023-10-19T11:27:54;16.21;91.85
216;HTU21D;70668;48.81286795;9.14184224;2023-10-19T11:30:26;16.21;91.02
216;HTU21D;70668;48.81286795;9.14184224;2023-10-19T11:32:56;16.13;92.21
216;HTU21D;70668;48.81286795;9.14184224;2023-10-19T11:35:28;16.11;92.21
216;HTU21D;70668;48.81286795;9.14184224;2023-10-19T11:37:58;15.89;94.74
216;HTU21D;70668;48.81286795;9.14184224;2023-10-19T11:40:28;15.85;97.10
216;HTU21D;70668;48.81286795;9.14184224;2023-10-19T11:42:56;15.73;97.49
216;HTU21D;70668;48.81286795;9.14184224;2023-10-19T11:45:29;15.75;98.22
216;HTU21D;70668;48.81286795;9.14184224;2023-10-19T11:47:57;15.86;98.35
216;HTU21D;70668;48.81286795;9.14184224;2023-10-19T11:50:27;15.76;99.38
216;HTU21D;70668;48.81286795;9.14184224;2023-10-19T11:52:55;15.58;100.86
216;HTU21D;70668;48.81286795;9.14184224;2023-10-19T11:55:25;15.82;99.97
216;HTU21D;70668;48.81286795;9.14184224;2023-10-19T11:57:53;15.86;99.72
216;HTU21D;70668;48.81286795;9.14184224;2023-10-19T12:00:22;15.90;99.97
216;HTU21D;70668;48.81286795;9.14184224;2023-10-19T12:03:03;15.91;99.96
216;HTU21D;70668;48.81286795;9.14184224;2023-10-19T12:05:32;15.83;100.60
216;HTU21D;70668;48.81286795;9.14184224;2023-10-19T12:08:03;15.70;101.11
216;HTU21D;70668;48.81286795;9.14184224;2023-10-19T12:10:32;15.73;100.61
216;HTU21D;70668;48.81286795;9.14184224;2023-10-19T12:13:02;15.78;101.18
216;HTU21D;70668;48.81286795;9.14184224;2023-10-19T12:15:31;15.81;99.93
216;HTU21D;70668;48.81286795;9.14184224;2023-10-19T12:18:02;15.84;100.92
216;HTU21D;70668;48.81286795;9.14184224;2023-10-19T12:20:33;15.97;99.97
216;HTU21D;70668;48.81286795;9.14184224;2023-10-19T12:23:02;15.85;100.70
216;HTU21D;70668;48.81286795;9.14184224;2023-10-19T12:25:31;15.84;100.71
216;HTU21D;70668;48.81286795;9.14184224;2023-10-19T12:28:00;15.68;101.41
216;HTU21D;70668;48.81286795;9.14184224;2023-10-19T12:30:29;15.68;101.38
216;HTU21D;70668;48.81286795;9.14184224;2023-10-19T12:33:05;15.56;101.48
216;HTU21D;70668;48.81286795;9.14184224;2023-10-19T12:35:37;15.54;101.56
216;HTU21D;70668;48.81286795;9.14184224;2023-10-19T12:38:18;15.44;101.90
216;HTU21D;70668;48.81286795;9.14184224;2023-10-19T12:40:47;15.47;101.44
216;HTU21D;70668;48.81286795;9.14184224;2023-10-19T12:43:17;15.49;102.06
216;HTU21D;70668;48.81286795;9.14184224;2023-10-19T12:45:48;15.49;101.90
216;HTU21D;70668;48.81286795;9.14184224;2023-10-19T12:48:21;15.33;101.92
216;HTU21D;70668;48.81286795;9.14184224;2023-10-19T12:50:55;15.41;102.23
216;HTU21D;70668;48.81286795;9.14184224;2023-10-19T12:53:24;15.18;103.38
216;HTU21D;70668;48.81286795;9.14184224;2023-10-19T12:55:52;15.25;102.80
216;HTU21D;70668;48.81286795;9.14184224;2023-10-19T12:58:21;15.14;103.13
216;HTU21D;70668;48.81286795;9.14184224;2023-10-19T13:00:52;15.12;103.90
216;HTU21D;70668;48.81286795;9.14184224;2023-10-19T13:03:24;15.19;104.23
216;HTU21D;70668;48.81286795;9.14184224;2023-10-19T13:05:57;15.24;103.44
216;HTU21D;70668;48.81286795;9.14184224;2023-10-19T13:08:29;15.44;103.26
216;HTU21D;70668;48.81286795;9.14184224;2023-10-19T13:10:57;15.28;103.21
216;HTU21D;70668;48.81286795;9.14184224;2023-10-19T13:13:26;15.18;103.78
216;HTU21D;70668;48.81286795;9.14184224;2023-10-19T13:15:55;15.23;104.52
216;HTU21D;70668;48.81286795;9.14184224;2023-10-19T13:18:26;15.45;103.16
216;HTU21D;70668;48.81286795;9.14184224;2023-10-19T13:20:57;15.59;101.75
216;HTU21D;70668;48.81286795;9.14184224;2023-10-19T13:23:27;15.48;102.49
216;HTU21D;70668;48.81286795;9.14184224;2023-10-19T13:25:58;15.29;103.28
216;HTU21D;70668;48.81286795;9.14184224;2023-10-19T13:28:34;15.40;103.13
216;HTU21D;70668;48.81286795;9.14184224;2023-10-19T13:31:04;15.27;103.64
216;HTU21D;70668;48.81286795;9.14184224;2023-10-19T13:33:37;15.53;103.70
216;HTU21D;70668;48.81286795;9.14184224;2023-10-19T13:36:06;15.33;103.79
216;HTU21D;70668;48.81286795;9.14184224;2023-10-19T13:38:34;15.33;104.07
216;HTU21D;70668;48.81286795;9.14184224;2023-10-19T13:41:03;15.27;104.34
216;HTU21D;70668;48.81286795;9.14184224;2023-10-19T13:43:35;15.31;104.83
216;HTU21D;70668;48.81286795;9.14184224;2023-10-19T13:46:22;15.25;104.52
216;HTU21D;70668;48.81286795;9.14184224;2023-10-19T13:48:53;15.40;104.28